sensor_id;sensor_type;location;lat;lon;timestamp;temperature;humidity
30381;DHT22;17169;50.966;11.038;2024-03-23T00:55:09;9.70;99.90
30381;DHT22;17169;50.966;11.038;2024-03-23T00:58:12;9.70;99.90
30381;DHT22;17169;50.966;11.038;2024-03-23T01:01:13;9.70;99.90
30381;DHT22;17169;50.966;11.038;2024-03-23T01:04:15;9.70;99.90
30381;DHT22;17169;50.966;11.038;2024-03-23T01:07:16;9.60;99.90
30381;DHT22;17169;50.966;11.038;2024-03-23T01:10:20;9.50;99.90
30381;DHT22;17169;50.966;11.038;2024-03-23T01:13:23;9.50;99.90
30381;DHT22;17169;50.966;11.038;2024-03-23T01:16:25;9.50;99.90
30381;DHT22;17169;50.966;11.038;2024-03-23T01:19:26;9.50;99.90
30381;DHT22;17169;50.966;11.038;2024-03-23T01:22:28;9.50;99.90
30381;DHT22;17169;50.966;11.038;2024-03-23T01:25:31;9.50;99.90
30381;DHT22;17169;50.966;11.038;2024-03-23T01:28:33;9.50;99.90
30381;DHT22;17169;50.966;11.038;2024-03-23T01:31:35;9.50;99.90
30381;DHT22;17169;50.966;11.038;2024-03-23T01:34:36;9.40;99.90
30381;DHT22;17169;50.966;11.038;2024-03-23T01:37:39;9.30;99.90
30381;DHT22;17169;50.966;11.038;2024-03-23T01:40:41;9.30;99.90
30381;DHT22;17169;50.966;11.038;2024-03-23T01:43:44;9.20;99.90
30381;DHT22;17169;50.966;11.038;2024-03-23T01:46:45;9.20;99.90
30381;DHT22;17169;50.966;11.038;2024-03-23T01:49:48;9.20;99.90
30381;DHT22;17169;50.966;11.038;2024-03-23T01:52:49;9.10;99.90
30381;DHT22;17169;50.966;11.038;2024-03-23T01:55:53;9.10;99.90
30381;DHT22;17169;50.966;11.038;2024-03-23T01:58:55;9.10;99.90
30381;DHT22;17169;50.966;11.038;2024-03-23T02:01:57;9.10;99.90
30381;DHT22;17169;50.966;11.038;2024-03-23T02:05:00;9.10;99.90
30381;DHT22;17169;50.966;11.038;2024-03-23T02:08:01;9.10;99.90
30381;DHT22;17169;50.966;11.038;2024-03-23T02:11:04;9.00;99.90
30381;DHT22;17169;50.966;11.038;2024-03-23T02:14:06;8.80;99.90
30381;DHT22;17169;50.966;11.038;2024-03-23T02:17:09;8.80;99.90
30381;DHT22;17169;50.966;11.038;2024-03-23T02:20:12;8.80;99.90
30381;DHT22;17169;50.966;11.038;2024-03-23T02:23:16;8.80;99.90
30381;DHT22;17169;50.966;11.038;2024-03-23T02:26:17;8.90;99.90
30381;DHT22;17169;50.966;11.038;2024-03-23T02:29:19;8.90;99.90
30381;DHT22;17169;50.966;11.038;2024-03-23T02:32:21;8.90;99.90
30381;DHT22;17169;50.966;11.038;2024-03-23T02:35:23;8.80;99.90
30381;DHT22;17169;50.966;11.038;2024-03-23T02:38:26;8.80;99.90
30381;DHT22;17169;50.966;11.038;2024-03-23T02:41:28;8.80;99.90
30381;DHT22;17169;50.966;11.038;2024-03-23T02:44:29;8.80;99.90
30381;DHT22;17169;50.966;11.038;2024-03-23T02:47:31;8.80;99.90
30381;DHT22;17169;50.966;11.038;2024-03-23T02:50:33;8.90;99.90
30381;DHT22;17169;50.966;11.038;2024-03-23T02:53:36;8.90;99.90
30381;DHT22;17169;50.966;11.038;2024-03-23T02:56:37;9.00;99.90
30381;DHT22;17169;50.966;11.038;2024-03-23T02:59:40;9.10;99.90
30381;DHT22;17169;50.966;11.038;2024-03-23T03:02:41;9.20;99.90
30381;DHT22;17169;50.966;11.038;2024-03-23T03:05:43;9.30;99.90
30381;DHT22;17169;50.966;11.038;2024-03-23T03:08:46;9.40;99.90
30381;DHT22;17169;50.966;11.038;2024-03-23T03:11:48;9.50;99.90
30381;DHT22;17169;50.966;11.038;2024-03-23T03:14:50;9.60;99.90
30381;DHT22;17169;50.966;11.038;2024-03-23T03:17:52;9.70;99.90
30381;DHT22;17169;50.966;11.038;2024-03-23T03:20:54;9.70;99.90
30381;DHT22;17169;50.966;11.038;2024-03-23T03:23:57;9.80;99.90
30381;DHT22;17169;50.966;11.038;2024-03-23T03:26:59;9.90;99.90
30381;DHT22;17169;50.966;11.038;2024-03-23T03:30:01;9.90;99.90
30381;DHT22;17169;50.966;11.038;2024-03-23T03:33:03;9.90;99.90
30381;DHT22;17169;50.966;11.038;2024-03-23T03:36:05;10.00;99.90
30381;DHT22;17169;50.966;11.038;2024-03-23T03:39:08;10.00;99.90
30381;DHT22;17169;50.966;11.038;2024-03-23T03:42:10;9.90;99.90
30381;DHT22;17169;50.966;11.038;2024-03-23T03:45:12;9.80;99.90
30381;DHT22;17169;50.966;11.038;2024-03-23T03:48:13;9.70;99.90
30381;DHT22;17169;50.966;11.038;2024-03-23T03:51:15;9.60;99.90
30381;DHT22;17169;50.966;11.038;2024-03-23T03:54:19;9.60;99.90
30381;DHT22;17169;50.966;11.038;2024-03-23T03:57:20;9.60;99.90
30381;DHT22;17169;50.966;11.038;2024-03-23T04:00:22;9.60;99.90
30381;DHT22;17169;50.966;11.038;2024-03-23T04:03:24;9.70;99.90
30381;DHT22;17169;50.966;11.038;2024-03-23T04:06:26;9.70;99.90
30381;DHT22;17169;50.966;11.038;2024-03-23T04:09:29;9.80;99.90
30381;DHT22;17169;50.966;11.038;2024-03-23T04:12:32;9.80;99.90
30381;DHT22;17169;50.966;11.038;2024-03-23T04:15:33;9.90;99.90
30381;DHT22;17169;50.966;11.038;2024-03-23T04:18:35;9.90;99.90
30381;DHT22;17169;50.966;11.038;2024-03-23T04:21:37;9.90;99.90
30381;DHT22;17169;50.966;11.038;2024-03-23T04:24:41;10.00;99.90
30381;DHT22;17169;50.966;11.038;2024-03-23T04:27:43;10.10;99.90
30381;DHT22;17169;50.966;11.038;2024-03-23T04:30:45;10.10;99.90
30381;DHT22;17169;50.966;11.038;2024-03-23T04:33:48;10.00;99.90
30381;DHT22;17169;50.966;11.038;2024-03-23T04:36:50;10.10;99.90
30381;DHT22;17169;50.966;11.038;2024-03-23T04:39:52;10.10;99.90
30381;DHT22;17169;50.966;11.038;2024-03-23T04:42:55;10.10;99.90
30381;DHT22;17169;50.966;11.038;2024-03-23T04:45:57;10.10;99.90
30381;DHT22;17169;50.966;11.038;2024-03-23T04:48:59;10.10;99.90
30381;DHT22;17169;50.966;11.038;2024-03-23T04:52:01;10.10;99.90
30381;DHT22;17169;50.966;11.038;2024-03-23T04:55:06;10.10;99.90
30381;DHT22;17169;50.966;11.038;2024-03-23T04:58:08;10.00;99.90
30381;DHT22;17169;50.966;11.038;2024-03-23T05:01:10;10.00;99.90
30381;DHT22;17169;50.966;11.038;2024-03-23T05:04:12;10.00;99.90
30381;DHT22;17169;50.966;11.038;2024-03-23T05:07:14;9.90;99.90
30381;DHT22;17169;50.966;11.038;2024-03-23T05:10:18;9.90;99.90
30381;DHT22;17169;50.966;11.038;2024-03-23T05:13:20;9.90;99.90
30381;DHT22;17169;50.966;11.038;2024-03-23T05:16:21;9.90;99.90
30381;DHT22;17169;50.966;11.038;2024-03-23T05:19:23;9.90;99.90
30381;DHT22;17169;50.966;11.038;2024-03-23T05:22:25;9.90;99.90
30381;DHT22;17169;50.966;11.038;2024-03-23T05:25:29;9.90;99.90
30381;DHT22;17169;50.966;11.038;2024-03-23T05:28:30;9.90;99.90
30381;DHT22;17169;50.966;11.038;2024-03-23T05:31:33;9.80;99.90
30381;DHT22;17169;50.966;11.038;2024-03-23T05:34:34;9.80;99.90
30381;DHT22;17169;50.966;11.038;2024-03-23T05:37:36;9.80;99.90
30381;DHT22;17169;50.966;11.038;2024-03-23T05:40:39;9.80;99.90
30381;DHT22;17169;50.966;11.038;2024-03-23T05:43:42;9.80;99.90
30381;DHT22;17169;50.966;11.038;2024-03-23T05:46:44;9.80;99.90
30381;DHT22;17169;50.966;11.038;2024-03-23T05:49:49;9.80;99.90
30381;DHT22;17169;50.966;11.038;2024-03-23T05:52:52;9.80;99.90
30381;DHT22;17169;50.966;11.038;2024-03-23T05:56:00;9.80;99.90
30381;DHT22;17169;50.966;11.038;2024-03-23T05:59:04;9.80;99.90
30381;DHT22;17169;50.966;11.038;2024-03-23T06:02:06;9.70;99.90
30381;DHT22;17169;50.966;11.038;2024-03-23T06:05:08;9.70;99.90
30381;DHT22;17169;50.966;11.038;2024-03-23T06:08:09;9.70;99.90
30381;DHT22;17169;50.966;11.038;2024-03-23T06:11:13;9.70;99.90
30381;DHT22;17169;50.966;11.038;2024-03-23T06:14:15;9.70;99.90
30381;DHT22;17169;50.966;11.038;2024-03-23T06:17:17;9.60;99.90
30381;DHT22;17169;50.966;11.038;2024-03-23T06:20:19;9.50;99.90
30381;DHT22;17169;50.966;11.038;2024-03-23T06:23:21;9.50;99.90
30381;DHT22;17169;50.966;11.038;2024-03-23T06:26:23;9.30;99.90
30381;DHT22;17169;50.966;11.038;2024-03-23T06:29:26;9.30;99.90
30381;DHT22;17169;50.966;11.038;2024-03-23T06:32:27;9.10;99.90
30381;DHT22;17169;50.966;11.038;2024-03-23T06:35:30;9.10;99.90
30381;DHT22;17169;50.966;11.038;2024-03-23T06:38:32;9.00;99.90
30381;DHT22;17169;50.966;11.038;2024-03-23T06:41:35;8.90;99.90
30381;DHT22;17169;50.966;11.038;2024-03-23T06:44:38;8.90;99.90
30381;DHT22;17169;50.966;11.038;2024-03-23T06:47:40;8.80;99.90
30381;DHT22;17169;50.966;11.038;2024-03-23T06:50:41;8.80;99.90
30381;DHT22;17169;50.966;11.038;2024-03-23T06:53:43;8.80;99.90
30381;DHT22;17169;50.966;11.038;2024-03-23T06:56:46;8.70;99.90
30381;DHT22;17169;50.966;11.038;2024-03-23T06:59:48;8.70;99.90
30381;DHT22;17169;50.966;11.038;2024-03-23T07:02:51;8.60;99.90
30381;DHT22;17169;50.966;11.038;2024-03-23T07:05:57;8.50;99.90
30381;DHT22;17169;50.966;11.038;2024-03-23T07:08:59;8.50;99.90
30381;DHT22;17169;50.966;11.038;2024-03-23T07:12:02;8.40;99.90
30381;DHT22;17169;50.966;11.038;2024-03-23T07:15:04;8.30;99.90
30381;DHT22;17169;50.966;11.038;2024-03-23T07:18:07;8.20;99.90
30381;DHT22;17169;50.966;11.038;2024-03-23T07:21:08;8.10;99.90
30381;DHT22;17169;50.966;11.038;2024-03-23T07:24:11;8.10;99.90
30381;DHT22;17169;50.966;11.038;2024-03-23T07:27:14;8.00;99.90
30381;DHT22;17169;50.966;11.038;2024-03-23T07:30:16;7.90;99.90
30381;DHT22;17169;50.966;11.038;2024-03-23T07:33:18;7.80;99.90
30381;DHT22;17169;50.966;11.038;2024-03-23T07:36:19;7.80;99.90
30381;DHT22;17169;50.966;11.038;2024-03-23T07:39:21;7.80;99.90
30381;DHT22;17169;50.966;11.038;2024-03-23T07:42:24;7.80;99.90
30381;DHT22;17169;50.966;11.038;2024-03-23T07:45:27;7.70;99.90
30381;DHT22;17169;50.966;11.038;2024-03-23T07:48:28;7.50;99.90
30381;DHT22;17169;50.966;11.038;2024-03-23T07:51:31;7.40;99.90
30381;DHT22;17169;50.966;11.038;2024-03-23T07:54:32;7.30;99.90
30381;DHT22;17169;50.966;11.038;2024-03-23T07:57:36;7.10;99.90
30381;DHT22;17169;50.966;11.038;2024-03-23T08:00:37;6.80;99.90
30381;DHT22;17169;50.966;11.038;2024-03-23T08:03:40;6.70;99.90
30381;DHT22;17169;50.966;11.038;2024-03-23T08:06:42;6.50;99.90
30381;DHT22;17169;50.966;11.038;2024-03-23T08:09:44;6.30;99.90
30381;DHT22;17169;50.966;11.038;2024-03-23T08:12:48;6.20;99.90
30381;DHT22;17169;50.966;11.038;2024-03-23T08:15:49;6.10;99.90
30381;DHT22;17169;50.966;11.038;2024-03-23T08:18:51;5.90;99.90
30381;DHT22;17169;50.966;11.038;2024-03-23T08:21:53;5.80;99.90
30381;DHT22;17169;50.966;11.038;2024-03-23T08:24:55;5.80;99.90
30381;DHT22;17169;50.966;11.038;2024-03-23T08:27:58;5.70;99.90
30381;DHT22;17169;50.966;11.038;2024-03-23T08:31:02;5.80;99.90
30381;DHT22;17169;50.966;11.038;2024-03-23T08:34:03;5.80;99.90
30381;DHT22;17169;50.966;11.038;2024-03-23T08:37:05;5.70;99.90
30381;DHT22;17169;50.966;11.038;2024-03-23T08:40:08;5.70;99.90
30381;DHT22;17169;50.966;11.038;2024-03-23T08:43:12;5.70;99.90
30381;DHT22;17169;50.966;11.038;2024-03-23T08:46:15;5.70;99.90
30381;DHT22;17169;50.966;11.038;2024-03-23T08:49:17;5.50;99.90
30381;DHT22;17169;50.966;11.038;2024-03-23T08:52:19;5.50;99.90
30381;DHT22;17169;50.966;11.038;2024-03-23T08:55:20;5.50;99.90
30381;DHT22;17169;50.966;11.038;2024-03-23T08:58:25;5.40;99.90
30381;DHT22;17169;50.966;11.038;2024-03-23T09:01:27;5.40;99.90
30381;DHT22;17169;50.966;11.038;2024-03-23T09:04:29;5.40;99.90
30381;DHT22;17169;50.966;11.038;2024-03-23T09:07:30;5.50;99.90
30381;DHT22;17169;50.966;11.038;2024-03-23T09:10:37;5.50;99.90
30381;DHT22;17169;50.966;11.038;2024-03-23T09:13:40;5.70;99.90
30381;DHT22;17169;50.966;11.038;2024-03-23T09:16:43;5.70;99.90
30381;DHT22;17169;50.966;11.038;2024-03-23T09:19:45;5.70;99.90
30381;DHT22;17169;50.966;11.038;2024-03-23T09:22:48;5.70;99.90
30381;DHT22;17169;50.966;11.038;2024-03-23T09:25:50;5.80;99.90
30381;DHT22;17169;50.966;11.038;2024-03-23T09:28:53;5.80;99.90
30381;DHT22;17169;50.966;11.038;2024-03-23T09:31:55;5.90;99.90
30381;DHT22;17169;50.966;11.038;2024-03-23T09:34:56;6.00;99.90
30381;DHT22;17169;50.966;11.038;2024-03-23T09:37:58;6.20;99.90
30381;DHT22;17169;50.966;11.038;2024-03-23T09:41:00;6.30;99.90
30381;DHT22;17169;50.966;11.038;2024-03-23T09:44:05;6.40;99.90
30381;DHT22;17169;50.966;11.038;2024-03-23T09:47:07;6.50;99.90
30381;DHT22;17169;50.966;11.038;2024-03-23T09:50:10;6.50;99.90
30381;DHT22;17169;50.966;11.038;2024-03-23T09:53:12;6.60;99.90
30381;DHT22;17169;50.966;11.038;2024-03-23T09:56:14;6.60;99.90
30381;DHT22;17169;50.966;11.038;2024-03-23T09:59:17;6.80;99.90
30381;DHT22;17169;50.966;11.038;2024-03-23T10:02:20;6.90;99.90
30381;DHT22;17169;50.966;11.038;2024-03-23T10:05:23;7.00;99.90
30381;DHT22;17169;50.966;11.038;2024-03-23T10:08:25;7.00;99.90
30381;DHT22;17169;50.966;11.038;2024-03-23T10:11:26;7.00;99.90
30381;DHT22;17169;50.966;11.038;2024-03-23T10:14:31;7.00;99.90
30381;DHT22;17169;50.966;11.038;2024-03-23T10:17:33;7.10;99.90
30381;DHT22;17169;50.966;11.038;2024-03-23T10:20:35;7.40;99.90
30381;DHT22;17169;50.966;11.038;2024-03-23T10:23:38;7.50;99.90
30381;DHT22;17169;50.966;11.038;2024-03-23T10:26:39;7.70;99.90
30381;DHT22;17169;50.966;11.038;2024-03-23T10:29:43;8.00;99.90
30381;DHT22;17169;50.966;11.038;2024-03-23T10:32:45;8.10;99.90
30381;DHT22;17169;50.966;11.038;2024-03-23T10:35:50;8.00;99.90
30381;DHT22;17169;50.966;11.038;2024-03-23T10:38:54;8.00;99.90
30381;DHT22;17169;50.966;11.038;2024-03-23T10:41:57;8.10;99.90
30381;DHT22;17169;50.966;11.038;2024-03-23T10:45:04;8.30;99.90
30381;DHT22;17169;50.966;11.038;2024-03-23T10:48:06;8.60;99.90
30381;DHT22;17169;50.966;11.038;2024-03-23T10:51:10;8.80;99.90
30381;DHT22;17169;50.966;11.038;2024-03-23T10:54:11;9.00;99.90
30381;DHT22;17169;50.966;11.038;2024-03-23T10:57:18;9.10;99.90
30381;DHT22;17169;50.966;11.038;2024-03-23T11:00:22;9.10;99.90
30381;DHT22;17169;50.966;11.038;2024-03-23T11:03:34;9.00;99.90
30381;DHT22;17169;50.966;11.038;2024-03-23T11:06:37;9.00;99.90
30381;DHT22;17169;50.966;11.038;2024-03-23T11:09:41;9.10;99.90
30381;DHT22;17169;50.966;11.038;2024-03-23T11:12:46;9.00;99.90
30381;DHT22;17169;50.966;11.038;2024-03-23T11:15:49;9.00;99.90
30381;DHT22;17169;50.966;11.038;2024-03-23T11:18:51;8.90;99.90
30381;DHT22;17169;50.966;11.038;2024-03-23T11:21:54;8.90;99.90
30381;DHT22;17169;50.966;11.038;2024-03-23T11:24:55;9.00;99.90
30381;DHT22;17169;50.966;11.038;2024-03-23T11:28:09;9.10;99.90
30381;DHT22;17169;50.966;11.038;2024-03-23T11:31:14;9.20;99.90
30381;DHT22;17169;50.966;11.038;2024-03-23T11:34:16;9.20;99.90
30381;DHT22;17169;50.966;11.038;2024-03-23T11:37:18;9.10;99.90
30381;DHT22;17169;50.966;11.038;2024-03-23T11:40:20;9.10;99.90
30381;DHT22;17169;50.966;11.038;2024-03-23T11:43:23;8.80;99.90
30381;DHT22;17169;50.966;11.038;2024-03-23T11:46:27;8.70;99.90
30381;DHT22;17169;50.966;11.038;2024-03-23T11:49:29;8.60;99.90
30381;DHT22;17169;50.966;11.038;2024-03-23T11:52:32;8.60;99.90
30381;DHT22;17169;50.966;11.038;2024-03-23T11:55:39;8.50;99.90
30381;DHT22;17169;50.966;11.038;2024-03-23T11:58:42;8.40;99.90
30381;DHT22;17169;50.966;11.038;2024-03-23T12:01:45;8.30;99.90
30381;DHT22;17169;50.966;11.038;2024-03-23T12:04:47;8.20;99.90
30381;DHT22;17169;50.966;11.038;2024-03-23T12:07:49;8.10;99.90
30381;DHT22;17169;50.966;11.038;2024-03-23T12:10:52;8.10;99.90
30381;DHT22;17169;50.966;11.038;2024-03-23T12:13:59;8.20;99.90
30381;DHT22;17169;50.966;11.038;2024-03-23T12:17:09;8.40;99.90
30381;DHT22;17169;50.966;11.038;2024-03-23T12:20:11;8.50;99.90
30381;DHT22;17169;50.966;11.038;2024-03-23T12:23:13;8.80;99.90
30381;DHT22;17169;50.966;11.038;2024-03-23T12:26:15;9.00;99.90
30381;DHT22;17169;50.966;11.038;2024-03-23T12:29:19;9.20;99.90
30381;DHT22;17169;50.966;11.038;2024-03-23T12:32:22;9.40;99.90
30381;DHT22;17169;50.966;11.038;2024-03-23T12:35:23;9.60;99.90
30381;DHT22;17169;50.966;11.038;2024-03-23T12:38:26;9.70;99.90
30381;DHT22;17169;50.966;11.038;2024-03-23T12:41:28;9.80;99.50
30381;DHT22;17169;50.966;11.038;2024-03-23T12:44:29;9.70;98.70
30381;DHT22;17169;50.966;11.038;2024-03-23T12:47:33;9.80;98.40
30381;DHT22;17169;50.966;11.038;2024-03-23T12:50:34;10.00;98.60
30381;DHT22;17169;50.966;11.038;2024-03-23T12:53:37;10.10;98.40
30381;DHT22;17169;50.966;11.038;2024-03-23T12:56:38;10.40;98.60
30381;DHT22;17169;50.966;11.038;2024-03-23T12:59:40;10.60;96.80
30381;DHT22;17169;50.966;11.038;2024-03-23T13:02:43;10.80;96.80
30381;DHT22;17169;50.966;11.038;2024-03-23T13:05:51;10.90;96.00
30381;DHT22;17169;50.966;11.038;2024-03-23T13:08:53;11.00;95.60
30381;DHT22;17169;50.966;11.038;2024-03-23T13:11:55;11.00;94.90
30381;DHT22;17169;50.966;11.038;2024-03-23T13:14:58;11.30;94.80
30381;DHT22;17169;50.966;11.038;2024-03-23T13:18:01;11.30;94.90
30381;DHT22;17169;50.966;11.038;2024-03-23T13:21:04;11.30;94.50
30381;DHT22;17169;50.966;11.038;2024-03-23T13:24:07;11.50;95.20
30381;DHT22;17169;50.966;11.038;2024-03-23T13:27:08;11.80;94.10
30381;DHT22;17169;50.966;11.038;2024-03-23T13:30:12;11.90;92.80
30381;DHT22;17169;50.966;11.038;2024-03-23T13:33:16;11.60;93.10
30381;DHT22;17169;50.966;11.038;2024-03-23T13:36:18;11.70;94.10
30381;DHT22;17169;50.966;11.038;2024-03-23T13:39:19;11.80;93.10
30381;DHT22;17169;50.966;11.038;2024-03-23T13:42:22;11.70;93.60
30381;DHT22;17169;50.966;11.038;2024-03-23T13:45:26;11.60;93.90
30381;DHT22;17169;50.966;11.038;2024-03-23T13:48:29;11.60;93.40
30381;DHT22;17169;50.966;11.038;2024-03-23T13:51:32;11.20;93.60
30381;DHT22;17169;50.966;11.038;2024-03-23T13:54:33;10.90;93.60
30381;DHT22;17169;50.966;11.038;2024-03-23T13:57:35;10.50;94.90
30381;DHT22;17169;50.966;11.038;2024-03-23T14:00:36;10.10;97.10
30381;DHT22;17169;50.966;11.038;2024-03-23T14:03:40;9.70;98.60
30381;DHT22;17169;50.966;11.038;2024-03-23T14:06:41;9.40;99.90
30381;DHT22;17169;50.966;11.038;2024-03-23T14:09:46;9.10;99.90
30381;DHT22;17169;50.966;11.038;2024-03-23T14:12:48;8.80;99.90
30381;DHT22;17169;50.966;11.038;2024-03-23T14:15:52;9.00;99.90
30381;DHT22;17169;50.966;11.038;2024-03-23T14:18:56;10.00;99.90
30381;DHT22;17169;50.966;11.038;2024-03-23T14:21:58;11.30;99.90
30381;DHT22;17169;50.966;11.038;2024-03-23T14:25:01;12.60;99.30
30381;DHT22;17169;50.966;11.038;2024-03-23T14:28:04;13.40;96.40
30381;DHT22;17169;50.966;11.038;2024-03-23T14:31:06;13.40;95.30
30381;DHT22;17169;50.966;11.038;2024-03-23T14:34:12;13.80;95.40
30381;DHT22;17169;50.966;11.038;2024-03-23T14:37:14;15.10;92.70
30381;DHT22;17169;50.966;11.038;2024-03-23T14:40:16;16.10;93.00
30381;DHT22;17169;50.966;11.038;2024-03-23T14:43:18;17.20;91.40
30381;DHT22;17169;50.966;11.038;2024-03-23T14:46:20;17.90;89.90
30381;DHT22;17169;50.966;11.038;2024-03-23T14:49:23;18.50;90.20
30381;DHT22;17169;50.966;11.038;2024-03-23T14:52:25;19.60;88.00
30381;DHT22;17169;50.966;11.038;2024-03-23T14:55:27;19.40;87.90
30381;DHT22;17169;50.966;11.038;2024-03-23T14:58:29;19.40;83.70
30381;DHT22;17169;50.966;11.038;2024-03-23T15:01:31;20.40;83.70
30381;DHT22;17169;50.966;11.038;2024-03-23T15:04:35;19.00;82.20
30381;DHT22;17169;50.966;11.038;2024-03-23T15:07:37;17.20;83.80
30381;DHT22;17169;50.966;11.038;2024-03-23T15:10:39;15.80;86.20
30381;DHT22;17169;50.966;11.038;2024-03-23T15:13:41;14.70;88.50
30381;DHT22;17169;50.966;11.038;2024-03-23T15:16:44;13.90;90.60
30381;DHT22;17169;50.966;11.038;2024-03-23T15:19:46;12.90;92.10
30381;DHT22;17169;50.966;11.038;2024-03-23T15:22:48;12.30;93.00
30381;DHT22;17169;50.966;11.038;2024-03-23T15:25:54;11.60;93.50
30381;DHT22;17169;50.966;11.038;2024-03-23T15:28:56;11.10;93.80
30381;DHT22;17169;50.966;11.038;2024-03-23T15:32:12;10.60;94.70
30381;DHT22;17169;50.966;11.038;2024-03-23T15:35:19;10.20;96.00
30381;DHT22;17169;50.966;11.038;2024-03-23T15:38:23;9.90;97.00
30381;DHT22;17169;50.966;11.038;2024-03-23T15:41:26;9.60;98.00
30381;DHT22;17169;50.966;11.038;2024-03-23T15:44:27;9.20;99.00
30381;DHT22;17169;50.966;11.038;2024-03-23T15:47:30;9.00;99.90
30381;DHT22;17169;50.966;11.038;2024-03-23T15:50:33;9.00;99.90
30381;DHT22;17169;50.966;11.038;2024-03-23T15:53:35;8.80;99.90
30381;DHT22;17169;50.966;11.038;2024-03-23T15:56:36;8.70;99.90
30381;DHT22;17169;50.966;11.038;2024-03-23T15:59:40;8.70;99.90
30381;DHT22;17169;50.966;11.038;2024-03-23T16:02:41;8.70;99.90
30381;DHT22;17169;50.966;11.038;2024-03-23T16:05:51;8.60;99.90
30381;DHT22;17169;50.966;11.038;2024-03-23T16:08:52;8.60;99.90
30381;DHT22;17169;50.966;11.038;2024-03-23T16:11:54;8.60;99.90
30381;DHT22;17169;50.966;11.038;2024-03-23T16:14:56;8.60;99.90
30381;DHT22;17169;50.966;11.038;2024-03-23T16:17:58;8.70;99.90
30381;DHT22;17169;50.966;11.038;2024-03-23T16:21:02;8.60;99.70
30381;DHT22;17169;50.966;11.038;2024-03-23T16:24:04;8.60;99.80
30381;DHT22;17169;50.966;11.038;2024-03-23T16:27:06;8.60;99.90
30381;DHT22;17169;50.966;11.038;2024-03-23T16:30:08;8.60;99.90
30381;DHT22;17169;50.966;11.038;2024-03-23T16:33:11;8.70;99.90
30381;DHT22;17169;50.966;11.038;2024-03-23T16:36:14;8.60;99.90
30381;DHT22;17169;50.966;11.038;2024-03-23T16:39:18;8.40;99.90
30381;DHT22;17169;50.966;11.038;2024-03-23T16:42:20;8.30;99.90
30381;DHT22;17169;50.966;11.038;2024-03-23T16:45:22;8.30;99.90
30381;DHT22;17169;50.966;11.038;2024-03-23T16:48:25;8.30;99.90
30381;DHT22;17169;50.966;11.038;2024-03-23T16:51:28;8.30;99.90
30381;DHT22;17169;50.966;11.038;2024-03-23T16:54:30;8.20;99.90
30381;DHT22;17169;50.966;11.038;2024-03-23T16:57:32;8.20;99.90
30381;DHT22;17169;50.966;11.038;2024-03-23T17:00:34;8.10;99.90
30381;DHT22;17169;50.966;11.038;2024-03-23T17:03:36;8.00;99.90
30381;DHT22;17169;50.966;11.038;2024-03-23T17:06:39;7.90;99.90
30381;DHT22;17169;50.966;11.038;2024-03-23T17:09:47;7.80;99.90
30381;DHT22;17169;50.966;11.038;2024-03-23T17:12:48;7.80;99.90
30381;DHT22;17169;50.966;11.038;2024-03-23T17:15:50;7.60;99.90
30381;DHT22;17169;50.966;11.038;2024-03-23T17:18:51;7.60;99.90
30381;DHT22;17169;50.966;11.038;2024-03-23T17:21:55;7.60;99.90
30381;DHT22;17169;50.966;11.038;2024-03-23T17:24:57;7.50;99.90
30381;DHT22;17169;50.966;11.038;2024-03-23T17:27:59;7.40;99.90
30381;DHT22;17169;50.966;11.038;2024-03-23T17:31:00;7.40;99.90
30381;DHT22;17169;50.966;11.038;2024-03-23T17:34:02;7.40;99.90
30381;DHT22;17169;50.966;11.038;2024-03-23T17:37:06;7.40;99.90
30381;DHT22;17169;50.966;11.038;2024-03-23T17:40:08;7.20;99.90
30381;DHT22;17169;50.966;11.038;2024-03-23T17:43:10;7.20;99.90
30381;DHT22;17169;50.966;11.038;2024-03-23T17:46:11;7.20;99.90
30381;DHT22;17169;50.966;11.038;2024-03-23T17:49:15;7.10;99.90
30381;DHT22;17169;50.966;11.038;2024-03-23T17:52:18;7.10;99.90
30381;DHT22;17169;50.966;11.038;2024-03-23T17:55:20;7.10;99.90
30381;DHT22;17169;50.966;11.038;2024-03-23T17:58:23;7.00;99.90
30381;DHT22;17169;50.966;11.038;2024-03-23T18:01:25;6.90;99.90
30381;DHT22;17169;50.966;11.038;2024-03-23T18:04:28;6.80;99.90
30381;DHT22;17169;50.966;11.038;2024-03-23T18:07:31;6.80;99.90
30381;DHT22;17169;50.966;11.038;2024-03-23T18:10:32;6.70;99.90
30381;DHT22;17169;50.966;11.038;2024-03-23T18:13:34;6.60;99.90
30381;DHT22;17169;50.966;11.038;2024-03-23T18:16:36;6.60;99.90
30381;DHT22;17169;50.966;11.038;2024-03-23T18:19:38;6.50;99.90
30381;DHT22;17169;50.966;11.038;2024-03-23T18:22:41;6.40;99.90
30381;DHT22;17169;50.966;11.038;2024-03-23T18:25:50;6.40;99.90
30381;DHT22;17169;50.966;11.038;2024-03-23T18:28:53;6.40;99.90
30381;DHT22;17169;50.966;11.038;2024-03-23T18:31:54;6.30;99.90
30381;DHT22;17169;50.966;11.038;2024-03-23T18:34:56;6.40;99.90
30381;DHT22;17169;50.966;11.038;2024-03-23T18:38:00;6.30;99.90
30381;DHT22;17169;50.966;11.038;2024-03-23T18:41:01;6.20;99.90
30381;DHT22;17169;50.966;11.038;2024-03-23T18:44:04;6.20;99.90
30381;DHT22;17169;50.966;11.038;2024-03-23T18:47:05;6.10;99.90
30381;DHT22;17169;50.966;11.038;2024-03-23T18:50:07;6.10;99.90
30381;DHT22;17169;50.966;11.038;2024-03-23T18:53:10;6.00;99.90
30381;DHT22;17169;50.966;11.038;2024-03-23T18:56:13;5.90;99.90
30381;DHT22;17169;50.966;11.038;2024-03-23T18:59:14;5.90;99.90
30381;DHT22;17169;50.966;11.038;2024-03-23T19:02:16;5.80;99.90
30381;DHT22;17169;50.966;11.038;2024-03-23T19:05:18;5.80;99.90
30381;DHT22;17169;50.966;11.038;2024-03-23T19:08:22;5.80;99.90
30381;DHT22;17169;50.966;11.038;2024-03-23T19:11:23;5.80;99.90
30381;DHT22;17169;50.966;11.038;2024-03-23T19:14:25;5.80;99.90
30381;DHT22;17169;50.966;11.038;2024-03-23T19:17:28;5.80;99.90
30381;DHT22;17169;50.966;11.038;2024-03-23T19:20:29;5.70;99.90
30381;DHT22;17169;50.966;11.038;2024-03-23T19:23:32;5.70;99.90
30381;DHT22;17169;50.966;11.038;2024-03-23T19:26:35;5.70;99.90
30381;DHT22;17169;50.966;11.038;2024-03-23T19:29:37;5.70;99.90
30381;DHT22;17169;50.966;11.038;2024-03-23T19:32:38;5.70;99.90
30381;DHT22;17169;50.966;11.038;2024-03-23T19:35:40;5.70;99.90
30381;DHT22;17169;50.966;11.038;2024-03-23T19:38:43;5.70;99.90
30381;DHT22;17169;50.966;11.038;2024-03-23T19:41:45;5.70;99.90
30381;DHT22;17169;50.966;11.038;2024-03-23T19:44:47;5.70;99.90
30381;DHT22;17169;50.966;11.038;2024-03-23T19:47:49;5.70;99.90
30381;DHT22;17169;50.966;11.038;2024-03-23T19:50:56;5.70;99.90
30381;DHT22;17169;50.966;11.038;2024-03-23T19:54:00;5.60;99.90
30381;DHT22;17169;50.966;11.038;2024-03-23T19:57:01;5.60;99.90
30381;DHT22;17169;50.966;11.038;2024-03-23T20:00:04;5.60;99.90
30381;DHT22;17169;50.966;11.038;2024-03-23T20:03:06;5.60;99.90